createdAt,value
2022-08-22T00:00:06.190Z,1015.27
2022-08-22T00:01:06.369Z,1015.28
2022-08-22T00:02:06.571Z,1015.27
2022-08-22T00:02:45.811Z,1014.67
2022-08-22T00:02:55.669Z,1015.22
2022-08-22T00:02:58.607Z,1014.70
2022-08-22T00:02:59.905Z,1014.70
2022-08-22T00:03:00.352Z,1015.02
2022-08-22T00:03:01.687Z,1014.66
2022-08-22T00:03:06.993Z,1015.19
2022-08-22T00:03:07.041Z,1015.25
2022-08-22T00:03:10.471Z,1015.27
2022-08-22T00:03:12.109Z,1015.00
2022-08-22T00:03:18.560Z,1015.31
2022-08-22T00:04:07.870Z,1015.30
2022-08-22T00:05:07.079Z,1015.30
2022-08-22T00:06:07.250Z,1015.29
2022-08-22T00:07:07.404Z,1015.28
2022-08-22T00:08:07.560Z,1015.32
2022-08-22T00:09:07.720Z,1015.26
2022-08-22T00:10:07.904Z,1015.29
2022-08-22T00:11:08.060Z,1015.28
2022-08-22T00:12:08.212Z,1015.30
2022-08-22T00:13:08.402Z,1015.31
2022-08-22T00:14:08.603Z,1015.26
2022-08-22T00:15:08.783Z,1015.23
2022-08-22T00:16:09.933Z,1015.26
2022-08-22T00:17:09.125Z,1015.31
2022-08-22T00:18:09.286Z,1015.27
2022-08-22T00:19:09.441Z,1015.29
2022-08-22T00:20:09.644Z,1015.30
2022-08-22T00:21:09.804Z,1015.29
2022-08-22T00:22:09.984Z,1015.29
2022-08-22T00:23:10.176Z,1015.29
2022-08-22T00:24:10.337Z,1015.23
2022-08-22T00:25:24.737Z,1015.24
2022-08-22T00:26:11.667Z,1015.23
2022-08-22T00:27:10.848Z,1015.18
2022-08-22T00:28:11.008Z,1015.24
2022-08-22T00:29:11.178Z,1015.21
2022-08-22T00:30:11.348Z,1015.23
2022-08-22T00:31:11.516Z,1015.27
2022-08-22T00:32:11.669Z,1015.20
2022-08-22T00:33:11.860Z,1015.21
2022-08-22T00:34:12.021Z,1015.25
2022-08-22T00:35:12.191Z,1015.21
2022-08-22T00:36:12.349Z,1015.24
2022-08-22T00:37:12.510Z,1015.25
2022-08-22T00:38:12.662Z,1015.27
2022-08-22T00:39:12.823Z,1015.25
2022-08-22T00:40:13.047Z,1015.29
2022-08-22T00:41:13.162Z,1015.30
2022-08-22T00:42:13.323Z,1015.28
2022-08-22T00:43:13.517Z,1015.29
2022-08-22T00:44:13.673Z,1015.34
2022-08-22T00:45:13.884Z,1015.30
2022-08-22T00:46:14.044Z,1015.31
2022-08-22T00:47:14.206Z,1015.32
2022-08-22T00:48:14.427Z,1015.32
2022-08-22T00:49:14.545Z,1015.31
2022-08-22T00:50:14.707Z,1015.29
2022-08-22T00:51:14.876Z,1015.26
2022-08-22T00:52:15.036Z,1015.24
2022-08-22T00:53:15.237Z,1015.22
2022-08-22T00:54:17.917Z,1015.24
2022-08-22T00:55:15.576Z,1015.27
2022-08-22T00:56:15.729Z,1015.28
2022-08-22T00:57:15.889Z,1015.24
2022-08-22T00:58:16.050Z,1015.32
2022-08-22T00:59:23.516Z,1015.31
2022-08-22T01:00:17.400Z,1015.33
2022-08-22T01:01:16.636Z,1015.31
2022-08-22T01:02:16.772Z,1015.33
2022-08-22T01:03:16.931Z,1015.31
2022-08-22T01:04:17.101Z,1015.28
2022-08-22T01:05:17.270Z,1015.28
2022-08-22T01:06:17.687Z,1015.32
2022-08-22T01:07:17.602Z,1015.32
2022-08-22T01:08:17.761Z,1015.32
2022-08-22T01:09:17.938Z,1015.35
2022-08-22T01:10:18.084Z,1015.33
2022-08-22T01:11:18.273Z,1015.33
2022-08-22T01:12:18.440Z,1015.33
2022-08-22T01:13:18.611Z,1015.34
2022-08-22T01:14:18.765Z,1015.34
2022-08-22T01:15:18.919Z,1015.35
2022-08-22T01:16:19.118Z,1015.38
2022-08-22T01:17:19.278Z,1015.41
2022-08-22T01:18:19.457Z,1015.41
2022-08-22T01:19:19.608Z,1015.40
2022-08-22T01:20:19.802Z,1015.41
2022-08-22T01:21:24.070Z,1015.44
2022-08-22T01:22:20.119Z,1015.46
2022-08-22T01:23:20.328Z,1015.44
2022-08-22T01:24:20.503Z,1015.46
2022-08-22T01:25:22.523Z,1015.49
2022-08-22T01:26:21.840Z,1015.50
2022-08-22T01:27:21.030Z,1015.51
2022-08-22T01:28:21.219Z,1015.52
2022-08-22T01:29:28.192Z,1015.52
2022-08-22T01:30:22.672Z,1015.54
2022-08-22T01:31:21.721Z,1015.51
2022-08-22T01:32:21.911Z,1015.50
2022-08-22T01:33:22.111Z,1015.52
2022-08-22T01:34:22.282Z,1015.51
2022-08-22T01:35:22.444Z,1015.49
2022-08-22T01:36:22.603Z,1015.54
2022-08-22T01:37:22.783Z,1015.51
2022-08-22T01:38:22.955Z,1015.50
2022-08-22T01:39:23.113Z,1015.52
2022-08-22T01:40:23.328Z,1015.52
2022-08-22T01:41:23.434Z,1015.50
2022-08-22T01:42:23.613Z,1015.52
2022-08-22T01:43:59.239Z,1015.49
2022-08-22T01:44:24.945Z,1015.45
2022-08-22T01:45:24.128Z,1015.46
2022-08-22T01:46:24.288Z,1015.46
2022-08-22T01:47:24.575Z,1015.45
2022-08-22T01:48:24.637Z,1015.42
2022-08-22T01:49:24.828Z,1015.46
2022-08-22T01:50:24.978Z,1015.43
2022-08-22T01:51:25.182Z,1015.48
2022-08-22T01:52:25.349Z,1015.49
2022-08-22T01:53:25.507Z,1015.46
2022-08-22T01:54:25.679Z,1015.46
2022-08-22T01:55:25.841Z,1015.50
2022-08-22T01:56:26.000Z,1015.46
2022-08-22T01:57:26.179Z,1015.49
2022-08-22T01:58:26.351Z,1015.47
2022-08-22T01:59:33.754Z,1015.46
2022-08-22T02:00:35.158Z,1015.44
2022-08-22T02:01:27.888Z,1015.44
2022-08-22T02:02:27.063Z,1015.46
2022-08-22T02:03:27.223Z,1015.46
2022-08-22T02:04:27.383Z,1015.46
2022-08-22T02:05:27.558Z,1015.51
2022-08-22T02:06:27.715Z,1015.47
2022-08-22T02:07:31.718Z,1015.50
2022-08-22T02:08:28.047Z,1015.47
2022-08-22T02:09:28.234Z,1015.44
2022-08-22T02:10:28.385Z,1015.48
2022-08-22T02:11:28.580Z,1015.51
2022-08-22T02:12:28.758Z,1015.46
2022-08-22T02:13:28.967Z,1015.47
2022-08-22T02:14:29.087Z,1015.49
2022-08-22T02:15:29.247Z,1015.51
2022-08-22T02:16:29.407Z,1015.51
2022-08-22T02:17:29.584Z,1015.53
2022-08-22T02:18:29.737Z,1015.53
2022-08-22T02:19:29.907Z,1015.53
2022-08-22T02:20:30.061Z,1015.53
2022-08-22T02:21:30.268Z,1015.54
2022-08-22T02:22:30.438Z,1015.51
2022-08-22T02:23:30.600Z,1015.50
2022-08-22T02:24:30.753Z,1015.51
2022-08-22T02:25:30.911Z,1015.51
2022-08-22T02:26:31.114Z,1015.50
2022-08-22T02:27:31.651Z,1015.51
2022-08-22T02:28:31.455Z,1015.56
2022-08-22T02:29:31.613Z,1015.55
2022-08-22T02:30:31.784Z,1015.53
2022-08-22T02:31:31.941Z,1015.55
2022-08-22T02:32:32.102Z,1015.57
2022-08-22T02:33:32.263Z,1015.56
2022-08-22T02:34:32.427Z,1015.57
2022-08-22T02:35:32.595Z,1015.56
2022-08-22T02:36:32.764Z,1015.56
2022-08-22T02:37:32.915Z,1015.55
2022-08-22T02:38:33.106Z,1015.54
2022-08-22T02:39:33.295Z,1015.58
2022-08-22T02:40:33.464Z,1015.57
2022-08-22T02:41:33.626Z,1015.53
2022-08-22T02:42:33.788Z,1015.56
2022-08-22T02:43:33.947Z,1015.51
2022-08-22T02:44:34.108Z,1015.54
2022-08-22T02:45:34.279Z,1015.49
2022-08-22T02:46:34.447Z,1015.48
2022-08-22T02:47:34.609Z,1015.50
2022-08-22T02:48:34.766Z,1015.49
2022-08-22T02:49:34.922Z,1015.49
2022-08-22T02:50:36.119Z,1015.53
2022-08-22T02:51:35.291Z,1015.52
2022-08-22T02:52:35.449Z,1015.53
2022-08-22T02:53:35.640Z,1015.46
2022-08-22T02:54:35.811Z,1015.49
2022-08-22T02:55:35.989Z,1015.47
2022-08-22T02:56:36.147Z,1015.50
2022-08-22T02:57:39.603Z,1015.48
2022-08-22T02:58:36.470Z,1015.50
2022-08-22T02:59:36.665Z,1015.53
2022-08-22T03:00:36.923Z,1015.52
2022-08-22T03:01:37.003Z,1015.48
2022-08-22T03:02:37.164Z,1015.51
2022-08-22T03:03:37.330Z,1015.50
2022-08-22T03:04:37.485Z,1015.50
2022-08-22T03:05:37.671Z,1015.51
2022-08-22T03:06:37.827Z,1015.51
2022-08-22T03:07:37.986Z,1015.50
2022-08-22T03:08:38.146Z,1015.51
2022-08-22T03:09:38.336Z,1015.49
2022-08-22T03:10:38.507Z,1015.50
2022-08-22T03:11:38.667Z,1015.50
2022-08-22T03:12:38.826Z,1015.48
2022-08-22T03:13:38.987Z,1015.47
2022-08-22T03:14:39.143Z,1015.47
2022-08-22T03:15:39.347Z,1015.45
2022-08-22T03:16:39.509Z,1015.46
2022-08-22T03:17:39.669Z,1015.46
2022-08-22T03:18:39.825Z,1015.46
2022-08-22T03:19:40.010Z,1015.45
2022-08-22T03:20:40.220Z,1015.44
2022-08-22T03:21:40.380Z,1015.46
2022-08-22T03:22:40.536Z,1015.42
2022-08-22T03:23:40.709Z,1015.44
2022-08-22T03:24:40.861Z,1015.39
2022-08-22T03:25:41.041Z,1015.40
2022-08-22T03:26:41.193Z,1015.36
2022-08-22T03:27:41.353Z,1015.35
2022-08-22T03:28:59.363Z,1015.34
2022-08-22T03:29:42.694Z,1015.36
2022-08-22T03:30:41.907Z,1015.38
2022-08-22T03:31:42.070Z,1015.37
2022-08-22T03:32:42.223Z,1015.38
2022-08-22T03:33:42.414Z,1015.35
2022-08-22T03:34:42.577Z,1015.37
2022-08-22T03:35:42.747Z,1015.36
2022-08-22T03:36:42.906Z,1015.40
2022-08-22T03:37:43.077Z,1015.38
2022-08-22T03:38:43.277Z,1015.42
2022-08-22T03:39:43.466Z,1015.38
2022-08-22T03:40:43.602Z,1015.35
2022-08-22T03:41:43.763Z,1015.36
2022-08-22T03:42:43.918Z,1015.37
2022-08-22T03:43:44.138Z,1015.36
2022-08-22T03:44:44.290Z,1015.40
2022-08-22T03:45:44.491Z,1015.40
2022-08-22T03:46:44.651Z,1015.38
2022-08-22T03:47:44.813Z,1015.35
2022-08-22T03:48:44.980Z,1015.39
2022-08-22T03:49:45.141Z,1015.38
2022-08-22T03:50:45.339Z,1015.35
2022-08-22T03:51:45.492Z,1015.39
2022-08-22T03:52:45.683Z,1015.37
2022-08-22T03:53:45.842Z,1015.41
2022-08-22T03:54:46.009Z,1015.42
2022-08-22T03:55:46.193Z,1015.47
2022-08-22T03:56:46.355Z,1015.46
2022-08-22T03:57:46.514Z,1015.46
2022-08-22T03:58:46.705Z,1015.47
2022-08-22T03:59:46.868Z,1015.52
2022-08-22T04:00:47.105Z,1015.51
2022-08-22T04:01:47.225Z,1015.53
2022-08-22T04:02:47.376Z,1015.55
2022-08-22T04:03:47.556Z,1015.57
2022-08-22T04:04:47.717Z,1015.60
2022-08-22T04:05:47.875Z,1015.61
2022-08-22T04:06:48.400Z,1015.62
2022-08-22T04:07:48.208Z,1015.61
2022-08-22T04:08:48.388Z,1015.64
2022-08-22T04:09:48.608Z,1015.61
2022-08-22T04:10:48.730Z,1015.63
2022-08-22T04:11:48.890Z,1015.65
2022-08-22T04:12:49.053Z,1015.61
2022-08-22T04:13:49.241Z,1015.62
2022-08-22T04:14:49.372Z,1015.66
2022-08-22T04:15:49.531Z,1015.66
2022-08-22T04:16:49.688Z,1015.68
2022-08-22T04:17:49.850Z,1015.71
2022-08-22T04:18:50.031Z,1015.67
2022-08-22T04:19:50.192Z,1015.73
2022-08-22T04:20:50.372Z,1015.66
2022-08-22T04:21:50.542Z,1015.73
2022-08-22T04:22:50.724Z,1015.70
2022-08-22T04:23:50.905Z,1015.71
2022-08-22T04:24:52.220Z,1015.72
2022-08-22T04:25:51.265Z,1015.72
2022-08-22T04:26:51.445Z,1015.74
2022-08-22T04:27:51.636Z,1015.74
2022-08-22T04:28:51.817Z,1015.73
2022-08-22T04:29:51.986Z,1015.75
2022-08-22T04:30:52.166Z,1015.78
2022-08-22T04:31:52.336Z,1015.78
2022-08-22T04:32:52.526Z,1015.80
2022-08-22T04:33:52.706Z,1015.80
2022-08-22T04:34:52.853Z,1015.82
2022-08-22T04:35:53.028Z,1015.82
2022-08-22T04:36:53.209Z,1015.82
2022-08-22T04:37:53.399Z,1015.83
2022-08-22T04:38:53.579Z,1015.83
2022-08-22T04:39:53.868Z,1015.83
2022-08-22T04:40:53.922Z,1015.82
2022-08-22T04:41:54.070Z,1015.82
2022-08-22T04:42:54.264Z,1015.82
2022-08-22T04:43:54.430Z,1015.82
2022-08-22T04:44:54.606Z,1015.84
2022-08-22T04:45:54.782Z,1015.82
2022-08-22T04:46:54.991Z,1015.83
2022-08-22T04:47:55.178Z,1015.83
2022-08-22T04:48:55.302Z,1015.85
2022-08-22T04:49:55.474Z,1015.89
2022-08-22T04:50:55.654Z,1015.89
2022-08-22T04:51:55.864Z,1015.90
2022-08-22T04:52:56.014Z,1015.93
2022-08-22T04:53:56.185Z,1015.92
2022-08-22T04:54:56.365Z,1015.92
2022-08-22T04:55:56.535Z,1015.92
2022-08-22T04:56:56.735Z,1015.90
2022-08-22T04:57:56.998Z,1015.93
2022-08-22T04:58:57.067Z,1015.93
2022-08-22T04:59:57.227Z,1015.95
2022-08-22T05:00:57.400Z,1015.94
2022-08-22T05:01:57.747Z,1016.01
2022-08-22T05:02:57.758Z,1015.99
2022-08-22T05:03:57.935Z,1016.05
2022-08-22T05:04:58.099Z,1016.03
2022-08-22T05:05:58.267Z,1016.04
2022-08-22T05:06:58.459Z,1016.08
2022-08-22T05:07:58.873Z,1016.05
2022-08-22T05:08:58.770Z,1016.07
2022-08-22T05:09:58.957Z,1016.10
2022-08-22T05:10:59.130Z,1016.07
2022-08-22T05:11:59.315Z,1016.11
2022-08-22T05:12:59.512Z,1016.10
2022-08-22T05:13:59.652Z,1016.11
2022-08-22T05:14:59.831Z,1016.10
2022-08-22T05:16:00.024Z,1016.11
2022-08-22T05:17:00.205Z,1016.13
2022-08-22T05:18:00.483Z,1016.13
2022-08-22T05:19:00.543Z,1016.12
2022-08-22T05:20:00.722Z,1016.12
2022-08-22T05:21:00.904Z,1016.13
2022-08-22T05:22:01.176Z,1016.11
2022-08-22T05:23:01.263Z,1016.12
2022-08-22T05:24:01.430Z,1016.09
2022-08-22T05:25:01.604Z,1016.12
2022-08-22T05:26:01.776Z,1016.07
2022-08-22T05:27:01.957Z,1016.07
2022-08-22T05:28:02.147Z,1016.12
2022-08-22T05:29:02.297Z,1016.13
2022-08-22T05:30:02.496Z,1016.14
2022-08-22T05:31:02.675Z,1016.14
2022-08-22T05:32:02.848Z,1016.17
2022-08-22T05:33:03.033Z,1016.15
2022-08-22T05:34:03.246Z,1016.16
2022-08-22T05:35:03.377Z,1016.13
2022-08-22T05:36:03.570Z,1016.10
2022-08-22T05:37:03.753Z,1016.17
2022-08-22T05:38:03.931Z,1016.13
2022-08-22T05:39:04.121Z,1016.17
2022-08-22T05:40:04.330Z,1016.18
2022-08-22T05:41:04.465Z,1016.19
2022-08-22T05:42:04.647Z,1016.16
2022-08-22T05:43:04.815Z,1016.19
2022-08-22T05:44:05.003Z,1016.18
2022-08-22T05:45:05.194Z,1016.22
2022-08-22T05:46:05.343Z,1016.21
2022-08-22T05:47:05.524Z,1016.23
2022-08-22T05:48:05.704Z,1016.28
2022-08-22T05:49:05.890Z,1016.26
2022-08-22T05:50:06.080Z,1016.26
2022-08-22T05:51:06.228Z,1016.28
2022-08-22T05:52:06.396Z,1016.29
2022-08-22T05:53:06.595Z,1016.30
2022-08-22T05:54:06.786Z,1016.30
2022-08-22T05:55:06.931Z,1016.33
2022-08-22T05:56:07.107Z,1016.31
2022-08-22T05:57:08.014Z,1016.33
2022-08-22T05:58:07.459Z,1016.37
2022-08-22T05:59:08.422Z,1016.36
2022-08-22T06:00:07.815Z,1016.37
2022-08-22T06:01:07.988Z,1016.42
2022-08-22T06:02:08.227Z,1016.44
2022-08-22T06:03:08.339Z,1016.40
2022-08-22T06:04:08.529Z,1016.45
2022-08-22T06:05:11.893Z,1016.45
2022-08-22T06:06:08.870Z,1016.45
2022-08-22T06:07:09.058Z,1016.45
2022-08-22T06:08:09.239Z,1016.43
2022-08-22T06:09:09.442Z,1016.44
2022-08-22T06:10:09.590Z,1016.43
2022-08-22T06:11:09.773Z,1016.42
2022-08-22T06:12:13.741Z,1016.43
2022-08-22T06:13:11.427Z,1016.47
2022-08-22T06:14:10.319Z,1016.42
2022-08-22T06:15:12.147Z,1016.47
2022-08-22T06:16:10.633Z,1016.43
2022-08-22T06:17:10.805Z,1016.49
2022-08-22T06:18:11.006Z,1016.49
2022-08-22T06:19:19.414Z,1016.49
2022-08-22T06:20:12.335Z,1016.46
2022-08-22T06:21:11.510Z,1016.46
2022-08-22T06:22:11.755Z,1016.48
2022-08-22T06:23:12.857Z,1016.50
2022-08-22T06:24:12.057Z,1016.53
2022-08-22T06:25:12.237Z,1016.53
2022-08-22T06:26:21.067Z,1016.49
2022-08-22T06:27:13.576Z,1016.51
2022-08-22T06:28:12.763Z,1016.54
2022-08-22T06:29:12.974Z,1016.53
2022-08-22T06:30:13.111Z,1016.53
2022-08-22T06:31:13.288Z,1016.52
2022-08-22T06:32:13.469Z,1016.53
2022-08-22T06:33:13.669Z,1016.58
2022-08-22T06:34:13.810Z,1016.58
2022-08-22T06:35:14.021Z,1016.58
2022-08-22T06:36:14.168Z,1016.61
2022-08-22T06:37:14.323Z,1016.57
2022-08-22T06:38:14.492Z,1016.55
2022-08-22T06:39:14.631Z,1016.56
2022-08-22T06:40:14.873Z,1016.54
2022-08-22T06:41:15.037Z,1016.52
2022-08-22T06:42:16.917Z,1016.56
2022-08-22T06:43:15.354Z,1016.54
2022-08-22T06:44:15.534Z,1016.53
2022-08-22T06:45:15.714Z,1016.53
2022-08-22T06:46:15.885Z,1016.55
2022-08-22T06:47:16.026Z,1016.52
2022-08-22T06:48:16.219Z,1016.55
2022-08-22T06:49:16.405Z,1016.54
2022-08-22T06:50:16.575Z,1016.53
2022-08-22T06:51:16.763Z,1016.54
2022-08-22T06:52:16.907Z,1016.58
2022-08-22T06:53:17.086Z,1016.57
2022-08-22T06:54:17.315Z,1016.55
2022-08-22T06:55:17.468Z,1016.57
2022-08-22T06:56:17.602Z,1016.53
2022-08-22T06:57:17.789Z,1016.56
2022-08-22T06:58:17.958Z,1016.53
2022-08-22T06:59:18.140Z,1016.57
2022-08-22T07:00:18.341Z,1016.57
2022-08-22T07:01:18.553Z,1016.63
2022-08-22T07:02:18.691Z,1016.62
2022-08-22T07:03:18.879Z,1016.63
2022-08-22T07:04:19.029Z,1016.63
2022-08-22T07:05:19.221Z,1016.61
2022-08-22T07:06:19.378Z,1016.62
2022-08-22T07:07:19.590Z,1016.64
2022-08-22T07:08:19.724Z,1016.63
2022-08-22T07:09:19.912Z,1016.61
2022-08-22T07:10:20.065Z,1016.64
2022-08-22T07:11:20.244Z,1016.68
2022-08-22T07:12:20.415Z,1016.65
2022-08-22T07:13:20.564Z,1016.67
2022-08-22T07:14:20.735Z,1016.71
2022-08-22T07:15:20.919Z,1016.67
2022-08-22T07:16:21.116Z,1016.67
2022-08-22T07:17:21.286Z,1016.61
2022-08-22T07:18:21.446Z,1016.62
2022-08-22T07:19:21.648Z,1016.62
2022-08-22T07:20:21.790Z,1016.65
2022-08-22T07:21:21.987Z,1016.66
2022-08-22T07:22:22.148Z,1016.70
2022-08-22T07:23:22.328Z,1016.72
2022-08-22T07:24:22.518Z,1016.73
2022-08-22T07:25:22.729Z,1016.74
2022-08-22T07:26:22.879Z,1016.75
2022-08-22T07:27:23.050Z,1016.75
2022-08-22T07:28:31.782Z,1016.76
2022-08-22T07:29:24.430Z,1016.77
2022-08-22T07:30:27.440Z,1016.79
2022-08-22T07:31:23.751Z,1016.77
2022-08-22T07:32:23.953Z,1016.78
2022-08-22T07:33:27.095Z,1016.78
2022-08-22T07:34:24.263Z,1016.78
2022-08-22T07:35:24.473Z,1016.80
2022-08-22T07:36:28.399Z,1016.77
2022-08-22T07:37:25.812Z,1016.77
2022-08-22T07:38:24.964Z,1016.78
2022-08-22T07:39:25.166Z,1016.74
2022-08-22T07:40:25.491Z,1016.76
2022-08-22T07:41:25.507Z,1016.78
2022-08-22T07:42:29.776Z,1016.77
2022-08-22T07:43:25.825Z,1016.76
2022-08-22T07:44:25.996Z,1016.79
2022-08-22T07:45:26.187Z,1016.76
2022-08-22T07:46:26.360Z,1016.74
2022-08-22T07:47:26.806Z,1016.74
2022-08-22T07:48:26.677Z,1016.74
2022-08-22T07:49:26.876Z,1016.77
2022-08-22T07:50:27.056Z,1016.83
2022-08-22T07:51:27.218Z,1016.80
2022-08-22T07:52:27.366Z,1016.81
2022-08-22T07:53:27.549Z,1016.82
2022-08-22T07:54:27.710Z,1016.80
2022-08-22T07:55:27.884Z,1016.80
2022-08-22T07:56:28.029Z,1016.76
2022-08-22T07:57:28.180Z,1016.74
2022-08-22T07:58:28.370Z,1016.77
2022-08-22T07:59:28.595Z,1016.78
2022-08-22T08:00:28.722Z,1016.81
2022-08-22T08:01:28.955Z,1016.79
2022-08-22T08:02:29.098Z,1016.81
2022-08-22T08:03:29.291Z,1016.84
2022-08-22T08:04:29.453Z,1016.77
2022-08-22T08:05:29.594Z,1016.78
2022-08-22T08:06:29.783Z,1016.81
2022-08-22T08:07:29.934Z,1016.77
2022-08-22T08:08:30.115Z,1016.80
2022-08-22T08:09:30.325Z,1016.83
2022-08-22T08:10:30.474Z,1016.86
2022-08-22T08:11:30.645Z,1016.82
2022-08-22T08:12:30.826Z,1016.82
2022-08-22T08:13:30.980Z,1016.79
2022-08-22T08:14:31.187Z,1016.78
2022-08-22T08:15:31.353Z,1016.80
2022-08-22T08:16:31.498Z,1016.78
2022-08-22T08:17:32.471Z,1016.83
2022-08-22T08:18:31.891Z,1016.83
2022-08-22T08:19:32.068Z,1016.80
2022-08-22T08:20:32.230Z,1016.82
2022-08-22T08:21:32.383Z,1016.83
2022-08-22T08:22:32.544Z,1016.80
2022-08-22T08:23:34.948Z,1016.81
2022-08-22T08:24:40.036Z,1016.78
2022-08-22T08:25:34.072Z,1016.80
2022-08-22T08:26:33.212Z,1016.80
2022-08-22T08:27:33.371Z,1016.77
2022-08-22T08:28:33.534Z,1016.82
2022-08-22T08:29:33.714Z,1016.79
2022-08-22T08:30:33.893Z,1016.78
2022-08-22T08:31:34.022Z,1016.78
2022-08-22T08:32:34.191Z,1016.78
2022-08-22T08:33:34.358Z,1016.82
2022-08-22T08:34:35.457Z,1016.80
2022-08-22T08:35:42.378Z,1016.80
2022-08-22T08:36:35.845Z,1016.79
2022-08-22T08:37:35.015Z,1016.81
2022-08-22T08:38:35.188Z,1016.77
2022-08-22T08:39:35.790Z,1016.75
2022-08-22T08:40:35.532Z,1016.73
2022-08-22T08:41:35.687Z,1016.72
2022-08-22T08:42:35.866Z,1016.69
2022-08-22T08:43:36.007Z,1016.69
2022-08-22T08:44:36.171Z,1016.68
2022-08-22T08:45:36.347Z,1016.66
2022-08-22T08:46:36.542Z,1016.69
2022-08-22T08:47:36.691Z,1016.67
2022-08-22T08:48:36.880Z,1016.68
2022-08-22T08:50:38.250Z,1016.67
2022-08-22T08:51:37.424Z,1016.62
2022-08-22T08:52:37.605Z,1016.62
2022-08-22T08:53:37.779Z,1016.64
2022-08-22T08:54:38.980Z,1016.61
2022-08-22T08:55:38.183Z,1016.63
2022-08-22T08:56:38.353Z,1016.65
2022-08-22T08:57:38.520Z,1016.64
2022-08-22T08:58:38.674Z,1016.61
2022-08-22T08:59:44.043Z,1016.63
2022-08-22T09:00:40.020Z,1016.64
2022-08-22T09:01:39.298Z,1016.63
2022-08-22T09:02:42.399Z,1016.60
2022-08-22T09:03:40.095Z,1016.64
2022-08-22T09:04:39.695Z,1016.64
2022-08-22T09:05:39.876Z,1016.63
2022-08-22T09:06:42.350Z,1016.63
2022-08-22T09:07:40.235Z,1016.61
2022-08-22T09:08:40.404Z,1016.64
2022-08-22T09:09:40.562Z,1016.60
2022-08-22T09:10:40.737Z,1016.58
2022-08-22T09:11:40.927Z,1016.62
2022-08-22T09:12:41.694Z,1016.63
2022-08-22T09:13:42.250Z,1016.63
2022-08-22T09:14:41.418Z,1016.64
2022-08-22T09:15:41.584Z,1016.64
2022-08-22T09:16:46.236Z,1016.65
2022-08-22T09:17:42.935Z,1016.63
2022-08-22T09:18:42.096Z,1016.66
2022-08-22T09:19:42.240Z,1016.68
2022-08-22T09:20:42.414Z,1016.69
2022-08-22T09:21:42.551Z,1016.67
2022-08-22T09:22:50.870Z,1016.69
2022-08-22T09:23:43.892Z,1016.69
2022-08-22T09:24:43.075Z,1016.67
2022-08-22T09:25:43.223Z,1016.69
2022-08-22T09:26:43.423Z,1016.69
2022-08-22T09:27:43.603Z,1016.73
2022-08-22T09:28:44.667Z,1016.66
2022-08-22T09:29:54.536Z,1016.65
2022-08-22T09:30:45.096Z,1016.71
2022-08-22T09:31:48.096Z,1016.70
2022-08-22T09:32:45.457Z,1016.67
2022-08-22T09:33:44.635Z,1016.65
2022-08-22T09:34:44.830Z,1016.63
2022-08-22T09:35:44.988Z,1016.62
2022-08-22T09:36:45.136Z,1016.58
2022-08-22T09:37:45.298Z,1016.65
2022-08-22T09:38:47.932Z,1016.66
2022-08-22T09:39:45.710Z,1016.69
2022-08-22T09:40:45.838Z,1016.66
2022-08-22T09:41:46.009Z,1016.64
2022-08-22T09:42:47.171Z,1016.62
2022-08-22T09:43:48.848Z,1016.64
2022-08-22T09:44:46.538Z,1016.62
2022-08-22T09:45:47.220Z,1016.60
2022-08-22T09:46:46.892Z,1016.59
2022-08-22T09:47:47.055Z,1016.62
2022-08-22T09:48:47.225Z,1016.59
2022-08-22T09:49:47.402Z,1016.61
2022-08-22T09:50:47.554Z,1016.62
2022-08-22T09:51:48.713Z,1016.62
2022-08-22T09:52:47.884Z,1016.62
2022-08-22T09:53:48.045Z,1016.59
2022-08-22T09:54:48.230Z,1016.60
2022-08-22T09:55:48.363Z,1016.64
2022-08-22T09:56:48.524Z,1016.54
2022-08-22T09:57:48.700Z,1016.57
2022-08-22T09:58:48.866Z,1016.52
2022-08-22T09:59:49.049Z,1016.57
2022-08-22T10:00:54.575Z,1016.51
2022-08-22T10:01:50.390Z,1016.54
2022-08-22T10:02:50.325Z,1016.55
2022-08-22T10:03:49.731Z,1016.53
2022-08-22T10:04:49.942Z,1016.57
2022-08-22T10:05:50.069Z,1016.54
2022-08-22T10:06:50.246Z,1016.53
2022-08-22T10:07:52.761Z,1016.57
2022-08-22T10:08:50.564Z,1016.55
2022-08-22T10:09:53.595Z,1016.56
2022-08-22T10:10:50.909Z,1016.54
2022-08-22T10:11:51.071Z,1016.57
2022-08-22T10:12:51.261Z,1016.57
2022-08-22T10:13:57.308Z,1016.58
2022-08-22T10:14:52.623Z,1016.61
2022-08-22T10:15:51.796Z,1016.60
2022-08-22T10:16:52.353Z,1016.62
2022-08-22T10:17:52.133Z,1016.62
2022-08-22T10:18:53.700Z,1016.58
2022-08-22T10:19:52.493Z,1016.57
2022-08-22T10:20:52.695Z,1016.57
2022-08-22T10:21:52.835Z,1016.58
2022-08-22T10:22:53.026Z,1016.60
2022-08-22T10:23:53.215Z,1016.62
2022-08-22T10:24:53.373Z,1016.61
2022-08-22T10:25:53.565Z,1016.63
2022-08-22T10:26:53.730Z,1016.60
2022-08-22T10:27:53.923Z,1016.58
2022-08-22T10:28:54.095Z,1016.60
2022-08-22T10:29:54.289Z,1016.60
2022-08-22T10:30:54.458Z,1016.56
2022-08-22T10:31:59.583Z,1016.62
2022-08-22T10:32:55.873Z,1016.57
2022-08-22T10:33:54.990Z,1016.58
2022-08-22T10:34:55.181Z,1016.60
2022-08-22T10:35:55.321Z,1016.58
2022-08-22T10:36:55.482Z,1016.58
2022-08-22T10:37:55.659Z,1016.60
2022-08-22T10:38:55.851Z,1016.58
2022-08-22T10:39:56.061Z,1016.60
2022-08-22T10:40:56.213Z,1016.60
2022-08-22T10:41:56.395Z,1016.57
2022-08-22T10:42:56.689Z,1016.52
2022-08-22T10:44:01.608Z,1016.55
2022-08-22T10:44:57.915Z,1016.57
2022-08-22T10:45:57.063Z,1016.57
2022-08-22T10:46:57.264Z,1016.54
2022-08-22T10:47:57.434Z,1016.54
2022-08-22T10:48:57.654Z,1016.55
2022-08-22T10:49:57.809Z,1016.55
2022-08-22T10:50:57.965Z,1016.49
2022-08-22T10:51:58.315Z,1016.49
2022-08-22T10:52:58.464Z,1016.48
2022-08-22T10:53:58.468Z,1016.47
2022-08-22T10:54:58.619Z,1016.47
2022-08-22T10:55:58.798Z,1016.47
2022-08-22T10:56:59.318Z,1016.48
2022-08-22T10:57:59.169Z,1016.47
2022-08-22T10:58:59.364Z,1016.46
2022-08-22T10:59:59.523Z,1016.44
2022-08-22T11:00:59.737Z,1016.44
2022-08-22T11:01:59.879Z,1016.41
2022-08-22T11:03:00.168Z,1016.44
2022-08-22T11:04:00.250Z,1016.41
2022-08-22T11:05:00.372Z,1016.47
2022-08-22T11:06:00.553Z,1016.48
2022-08-22T11:07:00.733Z,1016.49
2022-08-22T11:08:00.917Z,1016.46
2022-08-22T11:09:01.116Z,1016.45
2022-08-22T11:10:01.444Z,1016.47
2022-08-22T11:11:01.435Z,1016.46
2022-08-22T11:12:01.608Z,1016.48
2022-08-22T11:13:01.785Z,1016.45
2022-08-22T11:14:01.967Z,1016.47
2022-08-22T11:15:02.987Z,1016.47
2022-08-22T11:16:04.428Z,1016.45
2022-08-22T11:17:02.468Z,1016.43
2022-08-22T11:18:03.628Z,1016.45
2022-08-22T11:19:14.684Z,1016.42
2022-08-22T11:20:03.988Z,1016.45
2022-08-22T11:21:03.158Z,1016.49
2022-08-22T11:22:03.806Z,1016.48
2022-08-22T11:23:03.488Z,1016.43
2022-08-22T11:24:03.661Z,1016.37
2022-08-22T11:25:04.842Z,1016.43
2022-08-22T11:26:04.931Z,1016.42
2022-08-22T11:27:04.189Z,1016.43
2022-08-22T11:28:04.331Z,1016.45
2022-08-22T11:29:13.606Z,1016.44
2022-08-22T11:30:05.672Z,1016.46
2022-08-22T11:31:07.281Z,1016.42
2022-08-22T11:32:06.314Z,1016.39
2022-08-22T11:33:05.413Z,1016.43
2022-08-22T11:34:05.760Z,1016.46
2022-08-22T11:35:09.052Z,1016.44
2022-08-22T11:36:05.655Z,1016.40
2022-08-22T11:37:10.960Z,1016.40
2022-08-22T11:38:10.940Z,1016.37
2022-08-22T11:39:09.948Z,1016.42
2022-08-22T11:40:07.398Z,1016.41
2022-08-22T11:41:06.506Z,1016.43
2022-08-22T11:42:06.676Z,1016.41
2022-08-22T11:43:07.328Z,1016.42
2022-08-22T11:44:07.998Z,1016.39
2022-08-22T11:45:07.178Z,1016.41
2022-08-22T11:46:07.350Z,1016.40
2022-08-22T11:47:07.518Z,1016.41
2022-08-22T11:48:07.719Z,1016.38
2022-08-22T11:49:07.880Z,1016.40
2022-08-22T11:50:10.768Z,1016.40
2022-08-22T11:51:13.305Z,1016.45
2022-08-22T11:52:08.511Z,1016.39
2022-08-22T11:53:08.614Z,1016.37
2022-08-22T11:54:08.742Z,1016.35
2022-08-22T11:55:08.912Z,1016.33
2022-08-22T11:56:10.332Z,1016.29
2022-08-22T11:57:09.256Z,1016.31
2022-08-22T11:58:09.450Z,1016.32